createdAt,value
2023-01-06T00:01:09.055Z,103063.75
2023-01-06T00:03:56.681Z,103069.88
2023-01-06T00:06:44.048Z,103092.06
2023-01-06T00:09:31.296Z,103089.34
2023-01-06T00:12:18.323Z,103094.69
2023-01-06T00:15:05.394Z,103087.69
2023-01-06T00:17:52.220Z,103075.31
2023-01-06T00:20:39.332Z,103088.56
2023-01-06T00:23:26.170Z,103085.13
2023-01-06T00:26:13.463Z,103091.19
2023-01-06T00:29:00.329Z,103084.22
2023-01-06T00:31:47.659Z,103086.88
2023-01-06T00:34:34.573Z,103091.19
2023-01-06T00:37:21.635Z,103086.88
2023-01-06T00:40:08.480Z,103082.53
2023-01-06T00:42:58.014Z,103098.13
2023-01-06T00:45:44.874Z,103094.75
2023-01-06T00:48:32.224Z,103093.00
2023-01-06T00:51:22.223Z,103080.59
2023-01-06T00:54:09.702Z,103086.09
2023-01-06T00:57:01.578Z,103091.31
2023-01-06T00:59:48.673Z,103081.59
2023-01-06T01:02:35.659Z,103080.91
2023-01-06T01:05:22.741Z,103083.56
2023-01-06T01:08:09.741Z,103088.75
2023-01-06T01:10:56.775Z,103081.88
2023-01-06T01:13:43.676Z,103062.31
2023-01-06T01:16:30.654Z,103083.69
2023-01-06T01:19:17.779Z,103092.31
2023-01-06T01:22:06.191Z,103088.88
2023-01-06T01:24:53.523Z,103083.69
2023-01-06T01:27:40.704Z,103056.22
2023-01-06T01:30:27.969Z,103088.94
2023-01-06T01:33:15.269Z,103033.16
2023-01-06T01:36:02.065Z,103069.59
2023-01-06T01:38:49.096Z,103086.34
2023-01-06T01:41:38.989Z,103084.66
2023-01-06T01:45:03.603Z,103087.19
2023-01-06T01:48:08.363Z,103092.38
2023-01-06T01:51:00.149Z,103082.84
2023-01-06T01:53:51.633Z,103076.66
2023-01-06T01:56:46.837Z,103082.78
2023-01-06T01:59:41.487Z,103085.38
2023-01-06T02:02:29.344Z,103080.78
2023-01-06T02:05:16.767Z,103095.78
2023-01-06T02:08:03.993Z,103053.19
2023-01-06T02:10:50.933Z,103082.72
2023-01-06T02:13:38.390Z,103081.91
2023-01-06T02:17:26.957Z,103087.94
2023-01-06T02:20:34.849Z,103085.31
2023-01-06T02:23:31.510Z,103093.13
2023-01-06T02:26:36.913Z,103084.47
2023-01-06T02:29:45.900Z,103083.50
2023-01-06T02:32:51.159Z,103094.81
2023-01-06T02:36:07.775Z,103093.84
2023-01-06T02:39:16.661Z,103098.13
2023-01-06T02:42:18.687Z,103098.13
2023-01-06T02:45:38.063Z,103106.78
2023-01-06T02:48:25.098Z,103098.09
2023-01-06T02:51:21.081Z,103057.22
2023-01-06T02:54:26.247Z,103096.31
2023-01-06T02:57:47.411Z,103104.13
2023-01-06T03:00:44.398Z,103098.00
2023-01-06T03:03:40.293Z,103089.34
2023-01-06T03:06:33.695Z,103082.34
2023-01-06T03:09:21.719Z,103079.75
2023-01-06T03:12:11.426Z,103089.19
2023-01-06T03:15:04.818Z,103088.38
2023-01-06T03:17:52.727Z,103098.78
2023-01-06T03:20:40.704Z,103087.47
2023-01-06T03:23:27.925Z,103085.72
2023-01-06T03:26:15.284Z,103094.38
2023-01-06T03:29:02.719Z,103088.31
2023-01-06T03:31:57.162Z,103086.59
2023-01-06T03:35:01.329Z,103083.06
2023-01-06T03:38:19.777Z,103084.00
2023-01-06T03:41:20.581Z,103083.13
2023-01-06T03:44:26.820Z,103080.53
2023-01-06T03:47:22.837Z,103080.53
2023-01-06T03:50:27.055Z,103081.38
2023-01-06T03:53:44.277Z,103086.59
2023-01-06T03:56:50.648Z,103085.78
2023-01-06T03:59:42.521Z,103077.09
2023-01-06T04:02:30.469Z,103072.78
2023-01-06T04:05:42.535Z,103080.59
2023-01-06T04:08:29.879Z,103083.19
2023-01-06T04:11:18.194Z,103078.88
2023-01-06T04:14:05.392Z,103074.53
2023-01-06T04:16:53.657Z,103070.25
2023-01-06T04:19:41.186Z,103078.88
2023-01-06T04:22:28.129Z,103071.94
2023-01-06T04:25:15.565Z,103079.75
2023-01-06T04:28:03.477Z,103077.16
2023-01-06T04:30:50.667Z,103078.78
2023-01-06T04:33:38.032Z,103087.56
2023-01-06T04:36:27.269Z,103076.19
2023-01-06T04:39:16.166Z,103075.31
2023-01-06T04:42:03.244Z,103064.72
2023-01-06T04:44:50.212Z,103070.97
2023-01-06T04:47:37.327Z,103068.47
2023-01-06T04:50:24.751Z,102999.28
2023-01-06T04:53:11.937Z,103066.75
2023-01-06T04:56:00.582Z,103064.16
2023-01-06T04:58:47.506Z,103052.59
2023-01-06T05:01:34.919Z,103061.53
2023-01-06T05:04:22.397Z,103057.06
2023-01-06T05:07:09.261Z,103025.09
2023-01-06T05:09:56.401Z,103049.94
2023-01-06T05:12:43.286Z,103043.75
2023-01-06T05:15:30.896Z,103068.53
2023-01-06T05:18:17.750Z,103067.78
2023-01-06T05:21:04.676Z,103066.88
2023-01-06T05:23:51.689Z,103059.06
2023-01-06T05:26:43.892Z,103059.13
2023-01-06T05:29:36.435Z,103054.75
2023-01-06T05:32:24.369Z,103014.19
2023-01-06T05:35:11.478Z,103044.44
2023-01-06T05:37:58.379Z,103047.94
2023-01-06T05:40:45.383Z,103048.78
2023-01-06T05:43:32.256Z,103058.38
2023-01-06T05:46:19.095Z,103054.06
2023-01-06T05:49:06.098Z,103055.78
2023-01-06T05:51:52.976Z,103054.13
2023-01-06T05:54:39.880Z,103054.13
2023-01-06T05:57:07.915Z,103054.94
2023-01-06T05:59:54.846Z,103050.66
2023-01-06T06:02:41.929Z,103054.13
2023-01-06T06:05:29.264Z,103053.31
2023-01-06T06:08:16.620Z,103061.97
2023-01-06T06:11:03.670Z,103061.13
2023-01-06T06:13:50.678Z,103057.69
2023-01-06T06:16:39.961Z,103067.25
2023-01-06T06:19:27.006Z,103060.34
2023-01-06T06:22:13.929Z,103056.84
2023-01-06T06:25:00.768Z,103056.84
2023-01-06T06:27:48.096Z,103060.34
2023-01-06T06:30:35.182Z,103063.00
2023-01-06T06:33:22.186Z,103058.63
2023-01-06T06:36:18.923Z,103055.00
2023-01-06T06:39:07.802Z,103041.06
2023-01-06T06:41:54.705Z,103054.38
2023-01-06T06:44:41.675Z,103050.97
2023-01-06T06:47:28.633Z,103044.84
2023-01-06T06:50:15.669Z,103016.47
2023-01-06T06:53:02.556Z,103040.56
2023-01-06T06:55:49.541Z,103047.53
2023-01-06T06:58:36.480Z,103038.81
2023-01-06T07:01:25.464Z,102988.19
2023-01-06T07:04:12.425Z,103042.31
2023-01-06T07:06:59.310Z,103042.31
2023-01-06T07:09:46.402Z,103046.69
2023-01-06T07:12:33.394Z,103052.72
2023-01-06T07:15:20.701Z,103046.63
2023-01-06T07:18:07.852Z,103044.84
2023-01-06T07:20:56.573Z,103022.41
2023-01-06T07:23:44.373Z,103054.44
2023-01-06T07:26:31.365Z,103056.16
2023-01-06T07:29:18.477Z,102984.19
2023-01-06T07:32:06.079Z,103031.41
2023-01-06T07:34:53.046Z,103054.38
2023-01-06T07:37:39.977Z,103050.91
2023-01-06T07:40:27.467Z,103043.72
2023-01-06T07:43:14.346Z,103041.00
2023-01-06T07:46:01.342Z,103051.63
2023-01-06T07:48:48.230Z,103050.78
2023-01-06T07:51:35.264Z,103061.13
2023-01-06T07:54:22.411Z,103053.25
2023-01-06T07:57:09.224Z,103060.16
2023-01-06T07:59:56.135Z,103064.47
2023-01-06T08:02:43.745Z,103055.66
2023-01-06T08:05:30.691Z,103064.47
2023-01-06T08:08:17.779Z,103066.19
2023-01-06T08:11:04.668Z,103055.59
2023-01-06T08:13:51.696Z,103065.22
2023-01-06T08:16:38.614Z,103060.88
2023-01-06T08:19:26.182Z,103054.19
2023-01-06T08:22:13.067Z,103075.56
2023-01-06T08:25:00.189Z,103003.56
2023-01-06T08:27:47.894Z,103069.41
2023-01-06T08:30:35.362Z,103075.44
2023-01-06T08:33:22.375Z,103075.44
2023-01-06T08:36:09.629Z,103071.09
2023-01-06T08:38:57.154Z,103065.78
2023-01-06T08:41:44.137Z,103016.22
2023-01-06T08:44:31.149Z,103056.22
2023-01-06T08:47:18.238Z,103057.91
2023-01-06T08:50:05.230Z,103054.41
2023-01-06T08:52:52.278Z,103030.28
2023-01-06T08:55:39.530Z,103026.03
2023-01-06T08:58:27.840Z,103014.50
2023-01-06T09:01:15.033Z,103056.94
2023-01-06T09:04:02.161Z,103054.31
2023-01-06T09:06:49.704Z,103041.94
2023-01-06T09:09:37.353Z,103035.63
2023-01-06T09:12:24.449Z,103038.53
2023-01-06T09:15:11.420Z,103040.38
2023-01-06T09:17:58.944Z,103036.00
2023-01-06T09:20:45.988Z,103040.25
2023-01-06T09:23:32.948Z,103048.09
2023-01-06T09:26:19.954Z,103036.56
2023-01-06T09:29:07.039Z,103050.63
2023-01-06T09:31:53.942Z,103041.94
2023-01-06T09:34:40.987Z,103032.31
2023-01-06T09:37:28.536Z,103016.34
2023-01-06T09:40:15.432Z,103043.69
2023-01-06T09:43:15.111Z,103039.34
2023-01-06T09:46:09.412Z,103029.66
2023-01-06T09:49:11.876Z,103036.75
2023-01-06T09:51:58.839Z,103041.88
2023-01-06T09:54:53.452Z,103046.22
2023-01-06T09:58:01.124Z,103041.69
2023-01-06T10:01:05.046Z,103046.28
2023-01-06T10:03:52.082Z,103040.94
2023-01-06T10:07:08.859Z,103040.19
2023-01-06T10:10:17.435Z,103041.06
2023-01-06T10:13:16.230Z,103039.34
2023-01-06T10:16:28.361Z,103039.41
2023-01-06T10:19:23.936Z,103030.75
2023-01-06T10:22:21.483Z,103023.81
2023-01-06T10:25:42.096Z,103019.50
2023-01-06T10:28:43.161Z,103018.66
2023-01-06T10:31:36.854Z,103016.06
2023-01-06T10:34:30.547Z,103018.72
2023-01-06T10:37:37.559Z,103015.25
2023-01-06T10:40:56.410Z,103016.19
2023-01-06T10:43:43.283Z,102998.00
2023-01-06T10:46:30.190Z,102997.06
2023-01-06T10:49:17.110Z,102992.84
2023-01-06T10:52:11.265Z,103002.38
2023-01-06T10:54:59.406Z,102996.34
2023-01-06T10:57:50.348Z,102990.25
2023-01-06T11:00:38.961Z,102990.25
2023-01-06T11:03:35.080Z,102986.84
2023-01-06T11:06:47.752Z,102984.25
2023-01-06T11:09:52.330Z,102978.09
2023-01-06T11:12:49.175Z,102964.31
2023-01-06T11:15:42.080Z,102972.16
2023-01-06T11:18:58.400Z,102946.59
2023-01-06T11:21:58.911Z,102960.00
2023-01-06T11:24:47.159Z,102963.44
2023-01-06T11:27:36.604Z,102958.38
2023-01-06T11:30:49.271Z,102954.94
2023-01-06T11:33:39.331Z,102962.72
2023-01-06T11:36:31.981Z,102937.31
2023-01-06T11:39:22.130Z,102955.81
2023-01-06T11:42:12.399Z,102942.66
2023-01-06T11:45:01.723Z,102958.47
2023-01-06T11:47:48.960Z,102961.09
2023-01-06T11:50:40.517Z,102959.38
2023-01-06T11:53:38.583Z,102945.19
2023-01-06T11:56:36.802Z,102949.72
2023-01-06T11:59:34.807Z,102955.03
2023-01-06T12:02:06.552Z,102946.38
2023-01-06T12:04:46.413Z,102953.28
2023-01-06T12:07:19.556Z,102947.25
2023-01-06T12:10:09.025Z,102943.72
2023-01-06T12:12:56.159Z,102943.72
2023-01-06T12:15:44.179Z,102937.75
2023-01-06T12:18:24.322Z,102937.75
2023-01-06T12:20:52.719Z,102929.03
2023-01-06T12:23:28.530Z,102927.34
2023-01-06T12:26:05.461Z,102926.44
2023-01-06T12:28:42.273Z,102923.84
2023-01-06T12:31:27.762Z,102922.13
2023-01-06T12:34:21.767Z,102924.75
2023-01-06T12:37:27.027Z,102921.25
2023-01-06T12:40:49.677Z,102915.22
2023-01-06T12:43:38.634Z,102899.63
2023-01-06T12:46:33.633Z,102901.34
2023-01-06T12:49:28.883Z,102895.22
2023-01-06T12:52:00.143Z,102902.97
2023-01-06T12:54:35.186Z,102894.38
2023-01-06T12:57:09.491Z,102896.06
2023-01-06T12:59:51.885Z,102895.13
2023-01-06T13:02:37.341Z,102886.50
2023-01-06T13:05:16.371Z,102887.38
2023-01-06T13:07:55.604Z,102889.97
2023-01-06T13:10:43.127Z,102882.13
2023-01-06T13:13:57.338Z,102885.63
2023-01-06T13:17:11.431Z,102874.09
2023-01-06T13:20:11.786Z,102881.25
2023-01-06T13:23:26.401Z,102864.53
2023-01-06T13:26:13.335Z,102875.97
2023-01-06T13:29:09.572Z,102873.34
2023-01-06T13:32:05.554Z,102876.84
2023-01-06T13:35:05.868Z,102844.06
2023-01-06T13:38:15.904Z,102867.00
2023-01-06T13:41:03.829Z,102875.84
2023-01-06T13:43:53.937Z,102862.84
2023-01-06T13:46:43.660Z,102822.00
2023-01-06T13:49:31.719Z,102860.19
2023-01-06T13:52:20.599Z,102861.09
2023-01-06T13:55:18.069Z,102864.56
2023-01-06T13:58:06.433Z,102853.28
2023-01-06T14:00:53.351Z,102843.72
2023-01-06T14:03:44.367Z,102834.13
2023-01-06T14:06:52.822Z,102830.53
2023-01-06T14:09:44.499Z,102838.47
2023-01-06T14:12:43.645Z,102832.38
2023-01-06T14:15:45.615Z,102832.38
2023-01-06T14:18:59.358Z,102828.00
2023-01-06T14:21:49.978Z,102797.69
2023-01-06T14:24:42.425Z,102820.72
2023-01-06T14:27:32.141Z,102803.97
2023-01-06T14:30:22.502Z,102816.38
2023-01-06T14:33:09.351Z,102819.19
2023-01-06T14:36:00.302Z,102819.13
2023-01-06T14:38:52.487Z,102816.53
2023-01-06T14:41:47.990Z,102817.44
2023-01-06T14:44:44.918Z,102824.28
2023-01-06T14:47:41.516Z,102835.56
2023-01-06T14:50:47.290Z,102827.78
2023-01-06T14:53:47.764Z,102819.06
2023-01-06T14:56:44.214Z,102826.88
2023-01-06T14:59:34.307Z,102820.78
2023-01-06T15:02:36.450Z,102804.91
2023-01-06T15:05:23.785Z,102812.13
2023-01-06T15:08:37.882Z,102810.38
2023-01-06T15:11:43.529Z,102804.31
2023-01-06T15:14:51.850Z,102799.94
2023-01-06T15:17:39.010Z,102797.31
2023-01-06T15:20:32.928Z,102807.72
2023-01-06T15:23:20.302Z,102805.13
2023-01-06T15:26:12.742Z,102806.84
2023-01-06T15:28:59.632Z,102806.84
2023-01-06T15:31:48.098Z,102802.47
2023-01-06T15:34:39.111Z,102790.25
2023-01-06T15:37:34.913Z,102738.59
2023-01-06T15:40:24.377Z,102805.97
2023-01-06T15:43:11.442Z,102801.66
2023-01-06T15:45:58.462Z,102805.06
2023-01-06T15:48:50.062Z,102799.75
2023-01-06T15:51:40.648Z,102803.38
2023-01-06T15:54:33.641Z,102806.84
2023-01-06T15:57:23.404Z,102801.66
2023-01-06T16:00:17.124Z,102783.94
2023-01-06T16:03:07.506Z,102780.75
2023-01-06T16:06:10.763Z,102786.94
2023-01-06T16:08:59.523Z,102790.38
2023-01-06T16:11:47.450Z,102788.66
2023-01-06T16:14:48.433Z,102792.97
2023-01-06T16:17:44.107Z,102796.47
2023-01-06T16:20:44.279Z,102791.25
2023-01-06T16:23:29.245Z,102722.22
2023-01-06T16:26:09.262Z,102779.91
2023-01-06T16:28:41.652Z,102735.56
2023-01-06T16:31:12.272Z,102778.25
2023-01-06T16:33:46.027Z,102778.84
2023-01-06T16:36:15.579Z,102782.63
2023-01-06T16:38:42.756Z,102789.59
2023-01-06T16:41:16.199Z,102782.41
2023-01-06T16:43:43.609Z,102777.38
2023-01-06T16:46:17.522Z,102782.63
2023-01-06T16:48:44.421Z,102777.44
2023-01-06T16:51:36.539Z,102769.56
2023-01-06T16:54:29.549Z,102777.38
2023-01-06T16:57:16.658Z,102773.75
2023-01-06T17:00:03.683Z,102777.38
2023-01-06T17:02:52.138Z,102754.03
2023-01-06T17:05:45.997Z,102783.41
2023-01-06T17:08:39.470Z,102792.91
2023-01-06T17:11:33.614Z,102790.31
2023-01-06T17:14:29.445Z,102780.75
2023-01-06T17:16:56.523Z,102781.56
2023-01-06T17:19:33.678Z,102750.88
2023-01-06T17:22:23.655Z,102773.75
2023-01-06T17:24:50.626Z,102774.59
2023-01-06T17:27:23.290Z,102771.09
2023-01-06T17:30:11.858Z,102771.03
2023-01-06T17:33:02.187Z,102758.94
2023-01-06T17:35:49.733Z,102712.84
2023-01-06T17:38:43.486Z,102753.69
2023-01-06T17:41:30.533Z,102740.47
2023-01-06T17:44:17.603Z,102756.28
2023-01-06T17:47:05.672Z,102750.19
2023-01-06T17:49:55.925Z,102722.63
2023-01-06T17:52:52.603Z,102756.28
2023-01-06T17:56:03.879Z,102748.50
2023-01-06T17:58:52.410Z,102751.94
2023-01-06T18:01:45.618Z,102743.25
2023-01-06T18:04:34.852Z,102743.25
2023-01-06T18:07:22.264Z,102741.53
2023-01-06T18:10:13.288Z,102730.25
2023-01-06T18:13:00.199Z,102738.03
2023-01-06T18:15:47.149Z,102731.94
2023-01-06T18:18:49.401Z,102729.34
2023-01-06T18:21:36.284Z,102734.53
2023-01-06T18:24:45.580Z,102724.09
2023-01-06T18:27:50.316Z,102730.19
2023-01-06T18:30:42.321Z,102722.38
2023-01-06T18:33:36.878Z,102724.94
2023-01-06T18:36:23.954Z,102716.13
2023-01-06T18:39:10.782Z,102711.09
2023-01-06T18:41:57.622Z,102716.97
2023-01-06T18:44:44.744Z,102714.53
2023-01-06T18:47:44.554Z,102718.91
2023-01-06T18:51:02.348Z,102711.88
2023-01-06T18:53:57.022Z,102715.38
2023-01-06T18:56:45.928Z,102710.09
2023-01-06T18:59:39.222Z,102716.25
2023-01-06T19:02:56.653Z,102704.97
2023-01-06T19:05:43.813Z,102689.09
2023-01-06T19:08:35.111Z,102702.38
2023-01-06T19:11:31.369Z,102703.19
2023-01-06T19:14:20.371Z,102669.47
2023-01-06T19:17:14.768Z,102704.09
2023-01-06T19:20:02.535Z,102706.69
2023-01-06T19:22:51.933Z,102699.69
2023-01-06T19:25:53.392Z,102706.63
2023-01-06T19:28:43.934Z,102693.59
2023-01-06T19:31:39.988Z,102700.59
2023-01-06T19:34:33.915Z,102698.88
2023-01-06T19:37:21.126Z,102701.50
2023-01-06T19:40:12.469Z,102698.88
2023-01-06T19:42:59.417Z,102693.69
2023-01-06T19:45:51.287Z,102682.47
2023-01-06T19:48:57.184Z,102686.84
2023-01-06T19:51:47.083Z,102686.84
2023-01-06T19:54:47.153Z,102686.84
2023-01-06T19:57:49.768Z,102687.72
2023-01-06T20:01:07.295Z,102639.28
2023-01-06T20:04:03.114Z,102683.41
2023-01-06T20:06:50.333Z,102679.97
2023-01-06T20:09:37.231Z,102686.06
2023-01-06T20:12:24.359Z,102694.75
2023-01-06T20:15:11.281Z,102686.13
2023-01-06T20:17:58.157Z,102679.84
2023-01-06T20:20:44.972Z,102678.22
2023-01-06T20:23:32.115Z,102686.16
2023-01-06T20:26:19.044Z,102686.16
2023-01-06T20:29:06.090Z,102687.94
2023-01-06T20:31:53.288Z,102628.75
2023-01-06T20:34:40.298Z,102689.72
2023-01-06T20:37:27.424Z,102681.88
2023-01-06T20:40:14.385Z,102692.38
2023-01-06T20:43:01.349Z,102681.09
2023-01-06T20:45:48.497Z,102688.03
2023-01-06T20:48:35.790Z,102686.34
2023-01-06T20:51:22.853Z,102682.03
2023-01-06T20:54:09.830Z,102686.44
2023-01-06T20:56:56.862Z,102681.19
2023-01-06T20:59:44.187Z,102674.28
2023-01-06T21:02:31.184Z,102669.94
2023-01-06T21:05:18.180Z,102663.00
2023-01-06T21:08:05.293Z,102659.44
2023-01-06T21:10:52.313Z,102665.66
2023-01-06T21:13:39.366Z,102665.66
2023-01-06T21:16:26.602Z,102657.84
2023-01-06T21:19:14.204Z,102660.50
2023-01-06T21:22:01.088Z,102657.00
2023-01-06T21:24:48.053Z,102632.28
2023-01-06T21:27:35.088Z,102656.19
2023-01-06T21:30:22.479Z,102649.25
2023-01-06T21:33:09.717Z,102641.47
2023-01-06T21:35:56.763Z,102645.91
2023-01-06T21:38:43.931Z,102651.06
2023-01-06T21:41:29.441Z,102638.97
2023-01-06T21:44:16.451Z,102632.91
2023-01-06T21:47:03.529Z,102629.47
2023-01-06T21:49:51.008Z,102626.03
2023-01-06T21:52:38.336Z,102614.59
2023-01-06T21:55:05.808Z,102620.03
2023-01-06T21:57:32.755Z,102621.78
2023-01-06T21:59:59.662Z,102605.03
2023-01-06T22:02:26.687Z,102615.53
2023-01-06T22:04:53.602Z,102616.56
2023-01-06T22:07:21.344Z,102605.28
2023-01-06T22:09:48.938Z,102610.53
2023-01-06T22:12:38.675Z,102608.81
2023-01-06T22:15:26.417Z,102586.94
2023-01-06T22:18:17.588Z,102598.47
2023-01-06T22:21:04.728Z,102565.94
2023-01-06T22:23:52.573Z,102599.38
2023-01-06T22:26:39.487Z,102573.94
2023-01-06T22:29:26.430Z,102583.81
2023-01-06T22:32:13.322Z,102574.28
2023-01-06T22:35:00.162Z,102562.19
2023-01-06T22:37:47.009Z,102543.78
2023-01-06T22:40:37.346Z,102553.53
2023-01-06T22:43:27.793Z,102559.63
2023-01-06T22:46:16.203Z,102511.25
2023-01-06T22:49:03.154Z,102550.19
2023-01-06T22:51:50.158Z,102551.88
2023-01-06T22:54:37.159Z,102546.72
2023-01-06T22:57:24.096Z,102539.81
2023-01-06T23:00:11.034Z,102536.38
2023-01-06T23:02:58.334Z,102539.88
2023-01-06T23:05:45.411Z,102461.47
2023-01-06T23:08:32.417Z,102524.31
2023-01-06T23:11:25.600Z,102521.72
2023-01-06T23:14:15.666Z,102523.47
2023-01-06T23:17:03.034Z,102517.47
2023-01-06T23:19:49.923Z,102514.03
2023-01-06T23:22:36.780Z,102514.97
2023-01-06T23:25:23.794Z,102520.22
2023-01-06T23:28:10.707Z,102496.56
2023-01-06T23:30:57.754Z,102500.28
2023-01-06T23:33:44.707Z,102481.09
2023-01-06T23:36:33.098Z,102496.91
2023-01-06T23:39:21.133Z,102495.16
2023-01-06T23:42:08.350Z,102489.88
2023-01-06T23:44:55.559Z,102482.22
2023-01-06T23:47:42.617Z,102494.44
2023-01-06T23:50:29.822Z,102458.63
2023-01-06T23:53:16.789Z,102479.75
2023-01-06T23:56:14.015Z,102434.78
2023-01-06T23:59:02.300Z,102470.34
